createdAt,value
2022-08-02T00:02:20.135Z,6.90
2022-08-02T00:04:46.861Z,6.03
2022-08-02T00:07:14.241Z,5.57
2022-08-02T00:09:40.301Z,10.50
2022-08-02T00:12:06.558Z,7.55
2022-08-02T00:14:32.460Z,6.40
2022-08-02T00:16:58.424Z,8.13
2022-08-02T00:19:24.388Z,6.20
2022-08-02T00:21:50.271Z,6.38
2022-08-02T00:24:28.815Z,9.20
2022-08-02T00:26:56.115Z,5.57
2022-08-02T00:29:21.990Z,7.80
2022-08-02T00:31:47.837Z,4.45
2022-08-02T00:34:29.324Z,6.85
2022-08-02T00:36:57.461Z,6.68
2022-08-02T00:39:35.222Z,5.55
2022-08-02T00:42:02.163Z,10.38
2022-08-02T00:44:28.041Z,11.35
2022-08-02T00:46:53.969Z,8.23
2022-08-02T00:49:21.220Z,7.30
2022-08-02T00:51:47.463Z,5.68
2022-08-02T00:54:14.036Z,9.55
2022-08-02T00:56:39.939Z,7.25
2022-08-02T00:59:15.991Z,7.25
2022-08-02T01:01:56.627Z,8.65
2022-08-02T01:04:29.837Z,6.63
2022-08-02T01:06:58.974Z,5.22
2022-08-02T01:09:25.154Z,10.82
2022-08-02T01:11:50.950Z,6.75
2022-08-02T01:14:18.005Z,7.20
2022-08-02T01:17:05.580Z,6.35
2022-08-02T01:20:05.408Z,8.20
2022-08-02T01:22:59.424Z,7.40
2022-08-02T01:25:57.218Z,8.70
2022-08-02T01:28:29.134Z,6.50
2022-08-02T01:31:21.121Z,5.47
2022-08-02T01:34:13.232Z,8.60
2022-08-02T01:36:43.709Z,7.80
2022-08-02T01:39:26.726Z,6.97
2022-08-02T01:41:59.335Z,7.05
2022-08-02T01:44:28.063Z,10.35
2022-08-02T01:46:57.420Z,6.43
2022-08-02T01:49:27.392Z,9.02
2022-08-02T01:52:13.239Z,5.38
2022-08-02T01:54:42.626Z,9.80
2022-08-02T01:57:11.233Z,9.55
2022-08-02T01:59:39.481Z,8.48
2022-08-02T02:02:08.680Z,9.77
2022-08-02T02:04:36.867Z,7.25
2022-08-02T02:07:05.364Z,7.57
2022-08-02T02:09:37.039Z,7.85
2022-08-02T02:12:18.711Z,7.03
2022-08-02T02:14:50.034Z,9.48
2022-08-02T02:17:53.129Z,7.78
2022-08-02T02:20:09.119Z,6.32
2022-08-02T02:22:34.992Z,5.32
2022-08-02T02:25:01.149Z,6.20
2022-08-02T02:27:28.547Z,5.55
2022-08-02T02:29:55.825Z,5.78
2022-08-02T02:32:26.687Z,6.38
2022-08-02T02:34:53.345Z,6.13
2022-08-02T02:37:21.649Z,6.53
2022-08-02T02:39:50.574Z,7.07
2022-08-02T02:42:19.509Z,6.15
2022-08-02T02:44:47.811Z,5.28
2022-08-02T02:47:15.713Z,5.85
2022-08-02T02:49:45.344Z,6.82
2022-08-02T02:52:14.160Z,6.90
2022-08-02T02:54:42.135Z,6.47
2022-08-02T02:57:09.818Z,9.25
2022-08-02T02:59:43.077Z,9.52
2022-08-02T03:02:15.687Z,6.55
2022-08-02T03:04:56.356Z,9.35
2022-08-02T03:07:23.887Z,4.78
2022-08-02T03:09:54.135Z,8.05
2022-08-02T03:12:23.394Z,4.38
2022-08-02T03:14:51.748Z,4.70
2022-08-02T03:17:17.800Z,4.43
2022-08-02T03:19:45.143Z,5.07
2022-08-02T03:22:11.610Z,6.93
2022-08-02T03:24:38.124Z,5.05
2022-08-02T03:27:03.964Z,4.38
2022-08-02T03:29:34.142Z,4.93
2022-08-02T03:32:00.829Z,4.78
2022-08-02T03:34:26.868Z,5.47
2022-08-02T03:36:56.041Z,6.97
2022-08-02T03:39:22.930Z,6.05
2022-08-02T03:41:49.463Z,4.60
2022-08-02T03:44:16.245Z,5.20
2022-08-02T03:46:43.068Z,5.68
2022-08-02T03:49:10.126Z,8.88
2022-08-02T03:51:36.699Z,8.77
2022-08-02T03:54:03.070Z,7.57
2022-08-02T03:56:29.589Z,6.07
2022-08-02T03:59:12.650Z,7.47
2022-08-02T04:01:38.964Z,9.48
2022-08-02T04:04:05.589Z,7.75
2022-08-02T04:06:31.618Z,7.97
2022-08-02T04:08:57.494Z,9.73
2022-08-02T04:11:32.957Z,11.77
2022-08-02T04:14:06.804Z,6.97
2022-08-02T04:16:41.630Z,8.80
2022-08-02T04:19:15.202Z,8.75
2022-08-02T04:21:51.093Z,8.02
2022-08-02T04:24:25.090Z,9.00
2022-08-02T04:26:54.363Z,11.93
2022-08-02T04:29:21.439Z,8.13
2022-08-02T04:31:48.230Z,10.43
2022-08-02T04:34:15.603Z,9.30
2022-08-02T04:36:42.529Z,10.18
2022-08-02T04:39:08.500Z,8.38
2022-08-02T04:41:44.247Z,10.02
2022-08-02T04:44:11.328Z,10.00
2022-08-02T04:46:37.832Z,9.20
2022-08-02T04:49:04.859Z,11.25
2022-08-02T04:51:38.693Z,8.13
2022-08-02T04:54:09.295Z,11.15
2022-08-02T04:56:38.249Z,11.30
2022-08-02T04:59:04.810Z,9.15
2022-08-02T05:01:31.423Z,11.05
2022-08-02T05:03:57.344Z,11.18
2022-08-02T05:06:23.234Z,12.95
2022-08-02T05:08:52.751Z,8.02
2022-08-02T05:11:20.543Z,10.18
2022-08-02T05:13:58.091Z,6.95
2022-08-02T05:16:31.462Z,11.15
2022-08-02T05:18:58.865Z,8.10
2022-08-02T05:21:24.735Z,8.25
2022-08-02T05:23:50.621Z,9.57
2022-08-02T05:26:16.485Z,8.05
2022-08-02T05:28:42.384Z,7.88
2022-08-02T05:31:13.420Z,10.70
2022-08-02T05:33:39.920Z,10.30
2022-08-02T05:36:06.196Z,8.38
2022-08-02T05:38:32.091Z,8.43
2022-08-02T05:41:02.624Z,9.20
2022-08-02T05:43:29.360Z,9.70
2022-08-02T05:45:55.228Z,14.57
2022-08-02T05:48:21.323Z,12.10
2022-08-02T05:50:53.435Z,12.90
2022-08-02T05:53:31.839Z,12.05
2022-08-02T05:56:23.905Z,8.43
2022-08-02T05:59:03.083Z,10.48
2022-08-02T06:01:39.316Z,10.32
2022-08-02T06:04:15.635Z,11.90
2022-08-02T06:06:44.005Z,9.68
2022-08-02T06:09:15.310Z,8.73
2022-08-02T06:12:11.100Z,11.00
2022-08-02T06:14:33.204Z,11.35
2022-08-02T06:17:03.701Z,12.35
2022-08-02T06:19:31.531Z,9.73
2022-08-02T06:22:33.088Z,9.80
2022-08-02T06:25:02.350Z,10.70
2022-08-02T06:27:29.603Z,9.60
2022-08-02T06:29:55.618Z,8.15
2022-08-02T06:32:21.557Z,9.07
2022-08-02T06:34:47.464Z,7.10
2022-08-02T06:37:37.856Z,8.82
2022-08-02T06:40:07.114Z,8.00
2022-08-02T06:42:49.524Z,9.43
2022-08-02T06:45:15.686Z,8.55
2022-08-02T06:47:41.571Z,10.30
2022-08-02T06:50:07.884Z,7.80
2022-08-02T06:52:35.013Z,7.10
2022-08-02T06:55:02.760Z,3.70
2022-08-02T06:57:29.099Z,7.50
2022-08-02T06:59:55.441Z,5.80
2022-08-02T07:02:21.758Z,2.90
2022-08-02T07:04:47.915Z,4.18
2022-08-02T07:07:13.810Z,4.10
2022-08-02T07:09:39.794Z,3.88
2022-08-02T07:12:23.209Z,3.65
2022-08-02T07:14:49.077Z,3.28
2022-08-02T07:17:14.901Z,3.83
2022-08-02T07:19:40.799Z,3.90
2022-08-02T07:22:06.808Z,4.63
2022-08-02T07:24:34.492Z,3.35
2022-08-02T07:27:15.679Z,5.88
2022-08-02T07:29:46.859Z,2.85
2022-08-02T07:32:21.365Z,3.15
2022-08-02T07:34:51.415Z,4.57
2022-08-02T07:37:52.806Z,2.67
2022-08-02T07:40:14.513Z,2.67
2022-08-02T07:42:44.267Z,2.83
2022-08-02T07:45:11.765Z,3.40
2022-08-02T07:47:42.386Z,2.47
2022-08-02T07:50:09.587Z,3.55
2022-08-02T07:52:35.454Z,2.17
2022-08-02T07:55:01.429Z,1.55
2022-08-02T07:57:27.319Z,3.00
2022-08-02T07:59:53.176Z,2.47
2022-08-02T08:02:19.169Z,3.63
2022-08-02T08:04:44.984Z,2.70
2022-08-02T08:07:11.394Z,2.40
2022-08-02T08:09:41.007Z,4.88
2022-08-02T08:12:11.254Z,3.20
2022-08-02T08:14:38.582Z,2.88
2022-08-02T08:17:05.621Z,3.53
2022-08-02T08:19:50.152Z,7.10
2022-08-02T08:22:18.571Z,3.50
2022-08-02T08:24:44.678Z,2.58
2022-08-02T08:27:13.820Z,2.50
2022-08-02T08:29:41.568Z,3.60
2022-08-02T08:32:07.810Z,3.55
2022-08-02T08:34:34.764Z,5.00
2022-08-02T08:37:02.397Z,2.75
2022-08-02T08:39:28.332Z,1.70
2022-08-02T08:41:54.285Z,2.90
2022-08-02T08:44:20.357Z,1.83
2022-08-02T08:46:48.759Z,3.85
2022-08-02T08:49:52.995Z,4.55
2022-08-02T08:52:20.734Z,3.20
2022-08-02T08:54:48.590Z,4.63
2022-08-02T08:57:16.097Z,1.70
2022-08-02T08:59:42.036Z,1.77
2022-08-02T09:02:17.887Z,2.50
2022-08-02T09:04:54.766Z,3.40
2022-08-02T09:07:21.714Z,1.75
2022-08-02T09:09:47.557Z,3.75
2022-08-02T09:12:15.538Z,1.90
2022-08-02T09:14:41.608Z,5.72
2022-08-02T09:17:09.512Z,1.88
2022-08-02T09:19:36.339Z,3.33
2022-08-02T09:22:08.404Z,3.80
2022-08-02T09:25:00.977Z,2.10
2022-08-02T09:27:26.847Z,2.10
2022-08-02T09:30:12.684Z,2.00
2022-08-02T09:32:49.104Z,2.30
2022-08-02T09:38:16.588Z,2.80
2022-08-02T09:40:43.584Z,2.33
2022-08-02T09:43:09.875Z,2.78
2022-08-02T09:45:36.980Z,5.18
2022-08-02T09:48:07.452Z,3.40
2022-08-02T09:50:35.728Z,4.78
2022-08-02T09:53:02.479Z,2.90
2022-08-02T09:55:28.815Z,3.00
2022-08-02T09:57:54.931Z,4.10
2022-08-02T10:00:37.126Z,2.38
2022-08-02T10:03:09.356Z,7.43
2022-08-02T10:05:55.933Z,2.70
2022-08-02T10:08:32.938Z,2.22
2022-08-02T10:11:00.175Z,5.55
2022-08-02T10:13:32.926Z,2.13
2022-08-02T10:15:58.956Z,2.28
2022-08-02T10:18:38.360Z,3.35
2022-08-02T10:21:10.992Z,2.60
2022-08-02T10:23:40.068Z,2.42
2022-08-02T10:26:07.363Z,3.70
2022-08-02T10:28:33.465Z,1.77
2022-08-02T10:31:01.803Z,1.63
2022-08-02T10:33:35.219Z,2.38
2022-08-02T10:36:06.916Z,3.75
2022-08-02T10:38:34.542Z,2.33
2022-08-02T10:41:00.450Z,4.53
2022-08-02T10:43:35.318Z,2.55
2022-08-02T10:46:34.143Z,1.30
2022-08-02T10:49:37.958Z,1.55
2022-08-02T10:52:02.035Z,4.70
2022-08-02T10:54:30.672Z,3.50
2022-08-02T10:56:57.918Z,2.83
2022-08-02T10:59:29.779Z,2.40
2022-08-02T11:02:03.202Z,1.67
2022-08-02T11:04:52.536Z,2.55
2022-08-02T11:07:32.616Z,5.18
2022-08-02T11:09:59.596Z,4.97
2022-08-02T11:12:27.406Z,2.75
2022-08-02T11:15:07.689Z,2.88
2022-08-02T11:18:06.147Z,2.15
2022-08-02T11:20:31.997Z,1.80
2022-08-02T11:23:44.219Z,1.63
2022-08-02T11:26:37.916Z,3.17
2022-08-02T11:29:04.693Z,2.13
2022-08-02T11:31:41.990Z,2.00
2022-08-02T11:34:09.892Z,3.25
2022-08-02T11:36:49.829Z,3.47
2022-08-02T11:39:18.223Z,1.88
2022-08-02T11:41:56.498Z,1.45
2022-08-02T11:44:25.710Z,2.28
2022-08-02T11:46:58.883Z,3.67
2022-08-02T11:49:25.327Z,1.90
2022-08-02T11:52:04.468Z,1.45
2022-08-02T11:54:35.263Z,2.72
2022-08-02T11:57:21.702Z,3.78
2022-08-02T11:59:50.134Z,3.67
2022-08-02T12:02:17.421Z,2.05
2022-08-02T12:05:05.718Z,2.47
2022-08-02T12:07:45.702Z,2.92
2022-08-02T12:10:21.478Z,1.52
2022-08-02T12:12:54.359Z,2.42
2022-08-02T12:15:36.525Z,1.67
2022-08-02T12:18:26.199Z,1.55
2022-08-02T12:20:52.245Z,1.23
2022-08-02T12:23:18.369Z,1.00
2022-08-02T12:25:44.263Z,2.47
2022-08-02T12:28:17.562Z,1.63
2022-08-02T12:30:51.966Z,3.05
2022-08-02T12:33:18.387Z,1.50
2022-08-02T12:35:44.237Z,2.75
2022-08-02T12:38:11.612Z,4.18
2022-08-02T12:40:37.607Z,1.73
2022-08-02T12:43:05.702Z,1.67
2022-08-02T12:45:48.538Z,1.65
2022-08-02T12:48:16.855Z,3.15
2022-08-02T12:50:43.652Z,1.17
2022-08-02T12:53:15.253Z,1.50
2022-08-02T12:56:07.634Z,2.03
2022-08-02T12:58:48.340Z,4.45
2022-08-02T13:01:21.397Z,4.50
2022-08-02T13:04:12.015Z,6.43
2022-08-02T13:06:43.037Z,2.30
2022-08-02T13:09:15.087Z,1.77
2022-08-02T13:11:43.312Z,2.40
2022-08-02T13:14:10.594Z,1.35
2022-08-02T13:16:36.498Z,1.75
2022-08-02T13:19:02.373Z,1.00
2022-08-02T13:21:40.894Z,2.25
2022-08-02T13:24:33.157Z,4.45
2022-08-02T13:26:53.855Z,2.53
2022-08-02T13:29:19.764Z,4.88
2022-08-02T13:31:45.621Z,1.92
2022-08-02T13:34:11.531Z,1.15
2022-08-02T13:36:37.428Z,1.85
2022-08-02T13:39:04.020Z,3.28
2022-08-02T13:41:31.904Z,3.42
2022-08-02T13:44:04.974Z,1.33
2022-08-02T13:46:37.321Z,4.43
2022-08-02T13:49:15.082Z,3.30
2022-08-02T13:51:43.936Z,3.53
2022-08-02T13:54:09.822Z,1.83
2022-08-02T13:56:36.436Z,2.20
2022-08-02T13:59:55.343Z,1.77
2022-08-02T14:01:49.781Z,1.10
2022-08-02T14:04:15.726Z,4.35
2022-08-02T14:06:41.637Z,6.70
2022-08-02T14:09:07.520Z,3.65
2022-08-02T14:11:38.120Z,2.47
2022-08-02T14:14:04.113Z,1.80
2022-08-02T14:16:33.304Z,2.97
2022-08-02T14:18:59.376Z,1.73
2022-08-02T14:21:25.288Z,4.28
2022-08-02T14:23:51.238Z,2.17
2022-08-02T14:26:26.872Z,5.05
2022-08-02T14:28:54.357Z,3.67
2022-08-02T14:31:20.185Z,2.97
2022-08-02T14:33:46.117Z,1.63
2022-08-02T14:36:12.003Z,4.47
2022-08-02T14:38:38.276Z,5.53
2022-08-02T14:41:04.156Z,1.35
2022-08-02T14:43:48.556Z,1.88
2022-08-02T14:46:14.452Z,1.48
2022-08-02T14:48:40.460Z,1.50
2022-08-02T14:51:06.327Z,4.75
2022-08-02T14:53:38.108Z,1.70
2022-08-02T14:56:15.615Z,3.63
2022-08-02T14:58:41.510Z,2.80
2022-08-02T15:01:07.445Z,3.13
2022-08-02T15:03:43.470Z,4.65
2022-08-02T15:06:09.520Z,4.75
2022-08-02T15:08:35.458Z,3.17
2022-08-02T15:11:01.306Z,2.40
2022-08-02T15:13:27.180Z,2.28
2022-08-02T15:15:53.086Z,2.65
2022-08-02T15:18:18.941Z,1.50
2022-08-02T15:20:57.520Z,1.77
2022-08-02T15:23:24.486Z,1.40
2022-08-02T15:26:00.822Z,1.67
2022-08-02T15:28:28.897Z,1.23
2022-08-02T15:30:54.723Z,1.95
2022-08-02T15:33:20.568Z,4.65
2022-08-02T15:35:46.430Z,3.15
2022-08-02T15:38:12.308Z,1.50
2022-08-02T15:40:38.162Z,2.58
2022-08-02T15:43:04.025Z,5.40
2022-08-02T15:45:29.956Z,5.03
2022-08-02T15:47:55.830Z,3.03
2022-08-02T15:50:21.696Z,2.45
2022-08-02T15:52:47.573Z,3.65
2022-08-02T15:55:13.790Z,2.55
2022-08-02T15:57:39.781Z,2.42
2022-08-02T16:00:06.777Z,4.15
2022-08-02T16:02:43.922Z,4.05
2022-08-02T16:05:13.780Z,4.43
2022-08-02T16:07:41.264Z,4.13
2022-08-02T16:10:08.227Z,5.50
2022-08-02T16:12:34.118Z,7.00
2022-08-02T16:14:59.982Z,1.55
2022-08-02T16:17:48.890Z,3.10
2022-08-02T16:20:11.776Z,1.30
2022-08-02T16:22:37.932Z,3.17
2022-08-02T16:25:06.499Z,3.70
2022-08-02T16:27:32.325Z,1.38
2022-08-02T16:29:58.243Z,3.38
2022-08-02T16:32:24.126Z,1.48
2022-08-02T16:35:08.625Z,1.92
2022-08-02T16:40:19.957Z,6.15
2022-08-02T16:42:50.260Z,4.32
2022-08-02T16:45:20.721Z,1.65
2022-08-02T16:47:55.263Z,3.20
2022-08-02T16:50:28.242Z,5.35
2022-08-02T16:52:58.079Z,4.43
2022-08-02T16:55:24.569Z,7.32
2022-08-02T16:57:50.537Z,3.83
2022-08-02T17:00:16.569Z,1.17
2022-08-02T17:02:43.512Z,3.50
2022-08-02T17:05:13.820Z,2.50
2022-08-02T17:08:07.617Z,3.63
2022-08-02T17:10:28.556Z,4.93
2022-08-02T17:12:55.679Z,3.92
2022-08-02T17:16:08.035Z,2.67
2022-08-02T17:18:09.128Z,6.03
2022-08-02T17:20:35.731Z,3.80
2022-08-02T17:23:01.611Z,2.25
2022-08-02T17:25:27.639Z,1.80
2022-08-02T17:27:57.803Z,1.67
2022-08-02T17:30:26.302Z,2.55
2022-08-02T17:32:53.297Z,3.75
2022-08-02T17:35:19.506Z,2.20
2022-08-02T17:40:31.357Z,2.50
2022-08-02T17:42:57.227Z,1.77
2022-08-02T17:45:25.758Z,4.82
2022-08-02T17:48:04.250Z,3.47
2022-08-02T17:50:32.856Z,7.75
2022-08-02T17:52:59.175Z,3.65
2022-08-02T17:55:25.355Z,2.35
2022-08-02T17:57:58.321Z,2.08
2022-08-02T18:00:31.179Z,2.25
2022-08-02T18:02:57.041Z,1.27
2022-08-02T18:05:23.983Z,5.75
2022-08-02T18:08:06.830Z,3.25
2022-08-02T18:10:33.232Z,2.90
2022-08-02T18:12:59.080Z,2.42
2022-08-02T18:15:25.838Z,4.32
2022-08-02T18:17:52.001Z,3.28
2022-08-02T18:20:23.047Z,4.20
2022-08-02T18:22:49.035Z,5.80
2022-08-02T18:25:37.554Z,3.17
2022-08-02T18:28:07.827Z,2.00
2022-08-02T18:30:34.118Z,4.30
2022-08-02T18:33:59.673Z,4.80
2022-08-02T18:35:46.675Z,3.85
2022-08-02T18:38:12.685Z,3.28
2022-08-02T18:40:39.890Z,2.58
2022-08-02T18:43:07.194Z,5.03
2022-08-02T18:46:05.800Z,3.25
2022-08-02T18:48:20.818Z,2.03
2022-08-02T18:50:47.820Z,1.70
2022-08-02T18:53:15.593Z,3.17
2022-08-02T18:55:59.622Z,1.75
2022-08-02T18:58:30.047Z,1.60
2022-08-02T19:00:57.150Z,4.25
2022-08-02T19:03:25.186Z,2.60
2022-08-02T19:05:52.328Z,2.25
2022-08-02T19:08:20.421Z,3.90
2022-08-02T19:10:52.315Z,2.85
2022-08-02T19:13:18.411Z,2.95
2022-08-02T19:15:44.394Z,3.78
2022-08-02T19:18:13.767Z,6.25
2022-08-02T19:20:39.656Z,1.65
2022-08-02T19:23:14.384Z,4.43
2022-08-02T19:25:45.213Z,3.92
2022-08-02T19:28:26.289Z,3.22
2022-08-02T19:30:52.389Z,2.13
2022-08-02T19:33:54.389Z,2.08
2022-08-02T19:36:05.890Z,3.03
2022-08-02T19:38:32.011Z,5.00
2022-08-02T19:40:58.848Z,4.03
2022-08-02T19:44:25.766Z,4.60
2022-08-02T19:46:15.688Z,3.97
2022-08-02T19:48:42.573Z,3.08
2022-08-02T19:51:10.002Z,2.88
2022-08-02T19:53:47.299Z,4.25
2022-08-02T19:56:21.283Z,1.92
2022-08-02T19:58:51.529Z,3.58
2022-08-02T20:01:21.957Z,5.65
2022-08-02T20:03:53.291Z,3.83
2022-08-02T20:06:19.712Z,2.28
2022-08-02T20:11:44.740Z,4.93
2022-08-02T20:14:11.097Z,1.70
2022-08-02T20:16:39.253Z,4.65
2022-08-02T20:19:07.855Z,4.50
2022-08-02T20:21:37.049Z,6.85
2022-08-02T20:24:05.721Z,1.98
2022-08-02T20:26:31.725Z,5.47
2022-08-02T20:29:02.418Z,4.15
2022-08-02T20:31:28.968Z,3.22
2022-08-02T20:33:56.720Z,4.88
2022-08-02T20:36:23.655Z,1.73
2022-08-02T20:38:49.502Z,2.25
2022-08-02T20:41:21.361Z,2.40
2022-08-02T20:43:48.276Z,3.67
2022-08-02T20:46:14.726Z,2.33
2022-08-02T20:48:40.921Z,6.60
2022-08-02T20:51:09.807Z,1.98
2022-08-02T20:53:54.829Z,2.00
2022-08-02T20:56:21.382Z,2.92
2022-08-02T20:58:47.302Z,3.85
2022-08-02T21:01:21.167Z,1.85
2022-08-02T21:03:53.672Z,3.13
2022-08-02T21:06:26.203Z,5.20
2022-08-02T21:08:54.491Z,4.80
2022-08-02T21:11:20.399Z,2.20
2022-08-02T21:14:07.914Z,3.05
2022-08-02T21:16:35.587Z,4.93
2022-08-02T21:19:01.758Z,4.13
2022-08-02T21:21:28.573Z,2.70
2022-08-02T21:23:56.003Z,5.97
2022-08-02T21:26:28.300Z,3.63
2022-08-02T21:28:57.414Z,3.75
2022-08-02T21:31:24.367Z,4.38
2022-08-02T21:33:59.363Z,3.17
2022-08-02T21:36:32.667Z,2.17
2022-08-02T21:39:08.776Z,4.88
2022-08-02T21:41:39.343Z,4.10
2022-08-02T21:44:16.681Z,5.50
2022-08-02T21:46:49.566Z,4.97
2022-08-02T21:49:17.194Z,5.55
2022-08-02T21:51:43.605Z,3.97
2022-08-02T21:54:17.698Z,3.97
2022-08-02T21:56:46.652Z,6.38
2022-08-02T21:59:16.019Z,4.53
2022-08-02T22:01:53.179Z,2.53
2022-08-02T22:04:20.732Z,2.92
2022-08-02T22:06:46.861Z,2.75
2022-08-02T22:09:17.728Z,2.65
2022-08-02T22:12:02.505Z,1.95
2022-08-02T22:14:28.507Z,3.20
2022-08-02T22:16:54.320Z,2.42
2022-08-02T22:19:20.192Z,6.82
2022-08-02T22:21:54.688Z,5.75
2022-08-02T22:24:30.048Z,3.35
2022-08-02T22:26:56.432Z,5.25
2022-08-02T22:29:22.592Z,4.47
2022-08-02T22:31:48.473Z,4.22
2022-08-02T22:34:37.352Z,4.40
2022-08-02T22:37:00.541Z,2.33
2022-08-02T22:39:26.369Z,1.90
2022-08-02T22:42:05.637Z,7.30
2022-08-02T22:44:32.679Z,3.83
2022-08-02T22:46:59.795Z,4.00
2022-08-02T22:49:37.657Z,3.30
2022-08-02T22:52:11.566Z,5.60
2022-08-02T22:54:40.459Z,5.15
2022-08-02T22:57:11.485Z,5.68
2022-08-02T22:58:39.405Z,3.63
2022-08-02T22:58:54.654Z,5.35
2022-08-02T22:59:39.637Z,3.65
2022-08-02T23:02:06.685Z,3.90
2022-08-02T23:04:32.583Z,5.65
2022-08-02T23:06:58.446Z,4.10
2022-08-02T23:09:24.250Z,7.00
2022-08-02T23:11:50.073Z,2.88
2022-08-02T23:14:15.871Z,3.55
2022-08-02T23:17:00.440Z,2.75
2022-08-02T23:19:44.967Z,3.15
2022-08-02T23:22:10.866Z,2.20
2022-08-02T23:24:36.733Z,4.32
2022-08-02T23:27:02.584Z,3.90
2022-08-02T23:29:28.580Z,2.45
2022-08-02T23:31:54.524Z,5.25
2022-08-02T23:34:20.879Z,3.60
2022-08-02T23:36:46.686Z,3.10
2022-08-02T23:39:12.660Z,1.70
2022-08-02T23:41:38.683Z,5.22
2022-08-02T23:44:13.489Z,4.82
2022-08-02T23:46:42.380Z,2.03
2022-08-02T23:49:08.823Z,6.80
2022-08-02T23:51:34.716Z,4.20
2022-08-02T23:54:00.511Z,3.60
2022-08-02T23:56:26.341Z,3.70
2022-08-02T23:58:52.173Z,3.10
